Time;durP1;ratioP1;P1;durP2;ratioP2;P2;SDS_P1;SDS_P2;PMS_P1;PMS_P2;Temp;Humidity;BMP_temperature;BMP_pressure;BME280_temperature;BME280_humidity;BME280_pressure;Samples;Min_cycle;Max_cycle;Signal;HPM_P1;HPM_P2
2022/10/29 00:01:37;;;;;;;18.77;4.20;;;;;;;;;;5093296;28;20623;-67
2022/10/29 00:04:03;;;;;;;19.08;4.20;;;;;;;;;;5095384;28;20039;-67
2022/10/29 00:06:29;;;;;;;15.77;4.20;;;;;;;;;;5092400;27;20687;-68
2022/10/29 00:08:55;;;;;;;19.10;4.57;;;;;;;;;;5096378;27;20082;-69
2022/10/29 00:11:22;;;;;;;14.85;4.13;;;;;;;;;;5097422;27;20043;-69
2022/10/29 00:13:52;;;;;;;20.83;4.68;;;;;;;;;;5091445;28;20062;-68
2022/10/29 00:16:19;;;;;;;14.35;5.05;;;;;;;;;;5094479;27;20063;-69
2022/10/29 00:18:45;;;;;;;19.63;5.55;;;;;;;;;;5093035;27;20430;-69
2022/10/29 00:21:12;;;;;;;13.73;4.53;;;;;;;;;;5093199;27;20039;-69
2022/10/29 00:23:38;;;;;;;19.50;4.68;;;;;;;;;;5092667;28;20134;-69
2022/10/29 00:26:05;;;;;;;20.95;5.10;;;;;;;;;;5097316;27;20449;-69
2022/10/29 00:28:31;;;;;;;19.20;4.72;;;;;;;;;;5091314;28;20409;-69
2022/10/29 00:30:57;;;;;;;23.90;6.00;;;;;;;;;;5094730;27;20109;-69
2022/10/29 00:33:23;;;;;;;25.25;5.90;;;;;;;;;;5092950;27;20402;-67
2022/10/29 00:35:56;;;;;;;17.42;5.43;;;;;;;;;;5090345;27;20040;-69
2022/10/29 00:38:22;;;;;;;20.70;6.38;;;;;;;;;;5098524;27;20135;-68
2022/10/29 00:40:48;;;;;;;20.92;5.88;;;;;;;;;;5094378;27;20048;-68
2022/10/29 00:43:15;;;;;;;20.58;5.20;;;;;;;;;;5092700;27;20166;-69
2022/10/29 00:45:46;;;;;;;18.10;5.68;;;;;;;;;;5098384;27;20063;-68
2022/10/29 00:48:12;;;;;;;19.58;5.43;;;;;;;;;;5091330;28;20066;-67
2022/10/29 00:50:37;;;;;;;22.45;5.88;;;;;;;;;;5090977;27;20048;-69
2022/10/29 00:53:03;;;;;;;19.15;5.72;;;;;;;;;;5081365;28;20058;-69
2022/10/29 00:55:30;;;;;;;14.25;4.57;;;;;;;;;;5090986;28;20101;-69
2022/10/29 00:57:56;;;;;;;11.77;3.65;;;;;;;;;;5079506;28;20116;-69
2022/10/29 01:00:22;;;;;;;9.75;3.80;;;;;;;;;;5091891;27;20414;-67
2022/10/29 01:02:48;;;;;;;14.90;4.20;;;;;;;;;;5092936;27;20047;-69
2022/10/29 01:05:16;;;;;;;15.85;4.35;;;;;;;;;;5096247;27;20674;-68
2022/10/29 01:07:42;;;;;;;11.40;3.58;;;;;;;;;;5093128;27;20454;-69
2022/10/29 01:10:09;;;;;;;11.57;3.10;;;;;;;;;;5090877;27;20296;-68
2022/10/29 01:12:52;;;;;;;8.40;2.50;;;;;;;;;;5095878;27;20055;-69
2022/10/29 01:15:28;;;;;;;5.13;1.60;;;;;;;;;;5095963;27;20436;-68
2022/10/29 01:18:04;;;;;;;7.55;1.92;;;;;;;;;;5073891;28;20137;-67
2022/10/29 01:20:49;;;;;;;5.43;1.67;;;;;;;;;;5094851;28;20041;-68
2022/10/29 01:23:33;;;;;;;12.40;2.60;;;;;;;;;;5091839;28;20039;-69
2022/10/29 01:25:59;;;;;;;2.53;1.45;;;;;;;;;;5093083;27;21775;-69
2022/10/29 01:28:44;;;;;;;4.28;1.10;;;;;;;;;;5095083;27;20055;-69
2022/10/29 01:31:24;;;;;;;7.32;2.30;;;;;;;;;;5092415;27;20494;-67
2022/10/29 01:34:13;;;;;;;4.35;1.60;;;;;;;;;;5096684;27;20467;-67
2022/10/29 01:37:09;;;;;;;3.88;1.70;;;;;;;;;;5077723;27;20044;-69
2022/10/29 01:39:44;;;;;;;4.60;1.20;;;;;;;;;;5034670;27;20045;-71
2022/10/29 01:42:13;;;;;;;5.47;1.88;;;;;;;;;;5097940;28;20043;-70
2022/10/29 01:44:48;;;;;;;8.85;1.73;;;;;;;;;;5093285;27;20058;-70
2022/10/29 01:47:18;;;;;;;5.20;1.98;;;;;;;;;;5072273;28;20050;-68
2022/10/29 01:49:50;;;;;;;5.00;1.65;;;;;;;;;;5094009;27;20059;-69
2022/10/29 01:52:18;;;;;;;4.20;1.15;;;;;;;;;;5097118;28;20047;-68
2022/10/29 01:54:45;;;;;;;3.35;1.05;;;;;;;;;;5094192;27;20052;-69
2022/10/29 01:57:27;;;;;;;7.30;1.33;;;;;;;;;;5095725;27;20044;-69
2022/10/29 01:59:54;;;;;;;4.90;1.60;;;;;;;;;;5097102;27;20462;-69
2022/10/29 02:02:38;;;;;;;4.40;1.80;;;;;;;;;;5094595;28;20060;-70
2022/10/29 02:05:37;;;;;;;9.05;1.90;;;;;;;;;;5100088;27;20036;-68
2022/10/29 02:08:12;;;;;;;7.85;2.70;;;;;;;;;;5056816;27;20035;-68
2022/10/29 02:10:43;;;;;;;10.45;2.55;;;;;;;;;;5090881;27;20044;-69
2022/10/29 02:13:10;;;;;;;10.82;2.53;;;;;;;;;;5095559;28;20100;-69
2022/10/29 02:15:35;;;;;;;6.25;2.70;;;;;;;;;;5094684;28;20047;-70
2022/10/29 02:18:03;;;;;;;5.65;2.30;;;;;;;;;;5091832;28;20093;-68
2022/10/29 02:20:29;;;;;;;6.47;2.83;;;;;;;;;;5095222;27;20108;-68
2022/10/29 02:22:55;;;;;;;8.77;4.18;;;;;;;;;;5093055;27;20130;-68
2022/10/29 02:25:21;;;;;;;10.85;4.65;;;;;;;;;;5098291;27;20067;-68
2022/10/29 02:27:47;;;;;;;11.07;3.97;;;;;;;;;;5091592;27;20162;-68
2022/10/29 02:30:13;;;;;;;10.15;3.83;;;;;;;;;;5093676;27;20473;-69
2022/10/29 02:32:39;;;;;;;4.97;1.80;;;;;;;;;;5092276;27;20187;-69
2022/10/29 02:35:05;;;;;;;5.88;2.25;;;;;;;;;;5092380;28;20123;-68
2022/10/29 02:37:31;;;;;;;8.07;2.28;;;;;;;;;;5093697;27;20131;-72
2022/10/29 02:39:57;;;;;;;3.45;1.77;;;;;;;;;;5096547;28;20035;-69
2022/10/29 02:42:23;;;;;;;10.75;1.60;;;;;;;;;;5092293;27;20046;-68
2022/10/29 02:44:49;;;;;;;21.77;1.98;;;;;;;;;;5093748;28;20106;-68
2022/10/29 02:47:15;;;;;;;11.40;2.10;;;;;;;;;;5091593;28;20055;-69
2022/10/29 02:49:41;;;;;;;5.82;2.30;;;;;;;;;;5094313;28;20494;-71
2022/10/29 02:52:07;;;;;;;8.90;3.85;;;;;;;;;;5093204;28;20051;-69
2022/10/29 02:54:33;;;;;;;7.72;3.60;;;;;;;;;;5092117;28;20126;-68
2022/10/29 02:56:59;;;;;;;10.13;3.78;;;;;;;;;;5090089;28;20535;-70
2022/10/29 02:59:25;;;;;;;37.42;5.72;;;;;;;;;;5092705;28;20032;-68
2022/10/29 03:01:51;;;;;;;17.73;4.80;;;;;;;;;;5093993;28;20044;-68
2022/10/29 03:04:17;;;;;;;27.98;4.65;;;;;;;;;;5092046;27;20517;-68
2022/10/29 03:06:43;;;;;;;57.17;4.78;;;;;;;;;;5092406;27;20919;-68
2022/10/29 03:09:09;;;;;;;128.27;6.68;;;;;;;;;;5087214;28;20051;-68
2022/10/29 03:11:35;;;;;;;75.63;4.90;;;;;;;;;;5087775;28;20146;-68
2022/10/29 03:14:01;;;;;;;29.40;3.83;;;;;;;;;;5089912;28;20506;-68
2022/10/29 03:16:27;;;;;;;65.57;4.80;;;;;;;;;;5092408;28;20130;-68
2022/10/29 03:18:53;;;;;;;41.80;4.28;;;;;;;;;;5095879;28;20036;-68
2022/10/29 03:21:19;;;;;;;48.60;3.90;;;;;;;;;;5099062;28;20040;-68
2022/10/29 03:23:45;;;;;;;14.60;4.10;;;;;;;;;;5090865;28;20055;-68
2022/10/29 03:26:11;;;;;;;11.10;4.00;;;;;;;;;;5095565;28;20138;-68
2022/10/29 03:28:37;;;;;;;10.70;4.68;;;;;;;;;;5093238;28;20036;-68
2022/10/29 03:31:03;;;;;;;44.10;5.57;;;;;;;;;;5089258;28;20387;-68
2022/10/29 03:33:29;;;;;;;21.30;4.90;;;;;;;;;;5089813;28;20040;-68
2022/10/29 03:36:02;;;;;;;13.70;5.88;;;;;;;;;;5092194;28;20139;-68
2022/10/29 03:38:28;;;;;;;28.15;6.13;;;;;;;;;;5087759;28;20410;-68
2022/10/29 03:40:55;;;;;;;12.25;6.25;;;;;;;;;;5094034;28;20040;-68
2022/10/29 03:43:21;;;;;;;10.05;5.50;;;;;;;;;;5090382;28;20048;-68
2022/10/29 03:45:54;;;;;;;9.70;5.72;;;;;;;;;;5098395;28;20050;-68
2022/10/29 03:48:20;;;;;;;20.00;5.43;;;;;;;;;;5093075;28;20052;-68
2022/10/29 03:51:04;;;;;;;22.42;6.70;;;;;;;;;;5097277;28;20970;-68
2022/10/29 03:53:31;;;;;;;28.10;6.88;;;;;;;;;;5094943;28;20096;-68
2022/10/29 03:55:57;;;;;;;13.00;6.60;;;;;;;;;;5092145;28;20046;-68
2022/10/29 03:58:24;;;;;;;33.58;6.93;;;;;;;;;;5088629;28;20040;-68
2022/10/29 04:00:58;;;;;;;19.45;6.88;;;;;;;;;;5091086;28;20075;-68
2022/10/29 04:03:24;;;;;;;17.25;6.35;;;;;;;;;;5094077;28;20097;-69
2022/10/29 04:05:50;;;;;;;23.73;7.13;;;;;;;;;;5095242;28;20043;-68
2022/10/29 04:08:16;;;;;;;6.07;3.13;;;;;;;;;;5092470;28;20052;-68
2022/10/29 04:10:46;;;;;;;33.20;4.10;;;;;;;;;;5093584;28;20135;-68
2022/10/29 04:13:13;;;;;;;35.00;4.32;;;;;;;;;;5096535;27;20070;-69
2022/10/29 04:15:39;;;;;;;66.20;6.07;;;;;;;;;;5096615;27;20402;-69
2022/10/29 04:18:05;;;;;;;23.17;5.50;;;;;;;;;;5094422;27;20052;-68
2022/10/29 04:20:31;;;;;;;9.02;5.57;;;;;;;;;;5093984;28;20509;-68
2022/10/29 04:22:57;;;;;;;13.32;6.40;;;;;;;;;;5092442;27;20087;-69
2022/10/29 04:25:23;;;;;;;9.95;5.57;;;;;;;;;;5097011;27;20134;-69
2022/10/29 04:27:49;;;;;;;20.45;5.68;;;;;;;;;;5091977;27;20048;-68
2022/10/29 04:30:15;;;;;;;16.20;5.35;;;;;;;;;;5094394;27;20044;-68
2022/10/29 04:32:40;;;;;;;21.92;7.25;;;;;;;;;;5093159;28;20495;-69
2022/10/29 04:35:07;;;;;;;13.57;7.03;;;;;;;;;;5093245;27;20068;-68
2022/10/29 04:37:33;;;;;;;29.42;6.88;;;;;;;;;;5091153;28;20051;-68
2022/10/29 04:39:59;;;;;;;72.20;8.88;;;;;;;;;;5075607;27;20047;-68
2022/10/29 04:42:24;;;;;;;35.88;8.48;;;;;;;;;;5093016;27;20075;-68
2022/10/29 04:44:50;;;;;;;18.58;8.73;;;;;;;;;;5092347;27;20505;-68
2022/10/29 04:47:16;;;;;;;13.68;8.32;;;;;;;;;;5099246;27;20048;-69
2022/10/29 04:49:42;;;;;;;20.70;8.60;;;;;;;;;;5096010;27;20054;-69
2022/10/29 04:52:08;;;;;;;17.60;8.98;;;;;;;;;;5088508;28;20165;-68
2022/10/29 04:54:34;;;;;;;24.73;8.73;;;;;;;;;;5094130;27;20696;-69
2022/10/29 04:57:00;;;;;;;25.25;8.65;;;;;;;;;;5094797;27;20055;-69
2022/10/29 04:59:26;;;;;;;19.58;7.78;;;;;;;;;;5090716;28;20486;-69
2022/10/29 05:01:52;;;;;;;22.50;7.60;;;;;;;;;;5090538;27;20382;-69
2022/10/29 05:04:18;;;;;;;20.38;9.13;;;;;;;;;;5091750;28;20044;-69
2022/10/29 05:06:44;;;;;;;27.27;8.40;;;;;;;;;;5089677;28;20410;-68
2022/10/29 05:09:10;;;;;;;27.98;12.05;;;;;;;;;;5095569;27;20047;-70
2022/10/29 05:11:36;;;;;;;70.20;14.63;;;;;;;;;;5095135;27;20035;-69
2022/10/29 05:14:02;;;;;;;40.10;13.43;;;;;;;;;;5093150;27;20048;-68
2022/10/29 05:16:28;;;;;;;48.83;13.15;;;;;;;;;;5092416;27;20052;-68
2022/10/29 05:18:54;;;;;;;27.27;12.43;;;;;;;;;;5093325;27;20052;-69
2022/10/29 05:21:20;;;;;;;33.35;11.52;;;;;;;;;;5094528;27;20063;-69
2022/10/29 05:23:46;;;;;;;28.88;10.32;;;;;;;;;;5092579;27;20042;-69
2022/10/29 05:26:12;;;;;;;27.65;9.90;;;;;;;;;;5092031;28;20137;-68
2022/10/29 05:28:38;;;;;;;31.73;11.00;;;;;;;;;;5089672;27;20494;-69
2022/10/29 05:31:04;;;;;;;20.58;9.90;;;;;;;;;;5075140;28;20040;-68
2022/10/29 05:33:30;;;;;;;28.35;10.02;;;;;;;;;;5089164;28;20044;-68
2022/10/29 05:35:58;;;;;;;31.08;10.00;;;;;;;;;;5092065;27;20044;-69
2022/10/29 05:38:24;;;;;;;25.08;9.90;;;;;;;;;;5091317;27;20063;-69
2022/10/29 05:40:50;;;;;;;32.47;11.30;;;;;;;;;;5095914;27;20494;-69
2022/10/29 05:43:16;;;;;;;25.23;10.70;;;;;;;;;;5093457;27;20521;-68
2022/10/29 05:45:43;;;;;;;28.75;11.73;;;;;;;;;;5094642;27;20035;-69
2022/10/29 05:48:09;;;;;;;21.30;10.93;;;;;;;;;;5096861;27;20204;-69
2022/10/29 05:50:35;;;;;;;33.10;11.32;;;;;;;;;;5093349;27;20047;-70
2022/10/29 05:53:03;;;;;;;40.22;11.65;;;;;;;;;;5087067;28;20043;-69
2022/10/29 05:55:30;;;;;;;66.35;13.40;;;;;;;;;;5092082;27;20044;-69
2022/10/29 05:57:56;;;;;;;49.10;12.73;;;;;;;;;;5089178;28;20192;-67
2022/10/29 06:00:22;;;;;;;33.05;12.52;;;;;;;;;;5092637;27;20566;-69
2022/10/29 06:02:48;;;;;;;26.05;13.07;;;;;;;;;;5093283;27;20097;-69
2022/10/29 06:05:14;;;;;;;20.08;12.73;;;;;;;;;;5090904;28;20497;-69
2022/10/29 06:07:40;;;;;;;23.80;12.38;;;;;;;;;;5075881;28;20227;-69
2022/10/29 06:10:07;;;;;;;22.75;13.27;;;;;;;;;;5086527;28;20086;-68
2022/10/29 06:12:33;;;;;;;28.02;13.68;;;;;;;;;;5089627;27;20432;-68
2022/10/29 06:14:59;;;;;;;27.98;13.93;;;;;;;;;;5088117;28;20054;-68
2022/10/29 06:17:26;;;;;;;21.73;13.68;;;;;;;;;;5101227;27;20039;-69
2022/10/29 06:19:52;;;;;;;44.00;14.05;;;;;;;;;;5106899;27;20067;-69
2022/10/29 06:22:18;;;;;;;23.63;12.82;;;;;;;;;;5097319;27;20398;-68
2022/10/29 06:24:44;;;;;;;25.73;13.40;;;;;;;;;;5104528;27;20061;-69
2022/10/29 06:27:10;;;;;;;25.02;14.68;;;;;;;;;;5096358;27;20052;-69
2022/10/29 06:29:36;;;;;;;25.35;13.77;;;;;;;;;;5090505;28;20051;-69
2022/10/29 06:32:02;;;;;;;20.52;14.38;;;;;;;;;;5099007;27;20525;-69
2022/10/29 06:34:28;;;;;;;24.00;14.50;;;;;;;;;;5105052;27;20055;-68
2022/10/29 06:36:55;;;;;;;21.58;13.68;;;;;;;;;;5093034;28;20051;-69
2022/10/29 06:39:21;;;;;;;25.17;13.93;;;;;;;;;;5097307;27;20039;-69
2022/10/29 06:41:47;;;;;;;19.35;13.90;;;;;;;;;;5103979;27;20523;-69
2022/10/29 06:44:12;;;;;;;17.05;12.70;;;;;;;;;;5116145;27;20048;-68
2022/10/29 06:46:40;;;;;;;15.65;13.38;;;;;;;;;;5102063;27;20071;-69
2022/10/29 06:49:06;;;;;;;27.38;15.77;;;;;;;;;;5107055;27;20053;-69
2022/10/29 06:51:32;;;;;;;22.48;14.35;;;;;;;;;;5100852;27;20056;-68
2022/10/29 06:53:58;;;;;;;23.48;15.15;;;;;;;;;;5123597;27;20096;-68
2022/10/29 06:56:24;;;;;;;16.67;13.98;;;;;;;;;;5118064;27;20051;-69
2022/10/29 06:58:50;;;;;;;24.42;15.95;;;;;;;;;;5100545;27;20525;-68
2022/10/29 07:01:16;;;;;;;23.55;15.25;;;;;;;;;;5119056;27;20075;-68
2022/10/29 07:03:42;;;;;;;27.92;16.38;;;;;;;;;;5122837;27;20081;-69
2022/10/29 07:06:08;;;;;;;20.50;15.25;;;;;;;;;;5118530;27;20058;-69
2022/10/29 07:08:34;;;;;;;20.58;14.48;;;;;;;;;;5122192;27;20117;-69
2022/10/29 07:11:01;;;;;;;22.75;14.70;;;;;;;;;;5114416;27;20551;-68
2022/10/29 07:13:27;;;;;;;28.67;18.15;;;;;;;;;;5111525;28;20046;-69
2022/10/29 07:15:53;;;;;;;25.92;18.90;;;;;;;;;;5121474;27;20053;-69
2022/10/29 07:18:19;;;;;;;30.08;17.95;;;;;;;;;;5116163;27;20051;-68
2022/10/29 07:20:45;;;;;;;28.55;18.00;;;;;;;;;;5111459;28;20066;-69
2022/10/29 07:23:12;;;;;;;27.30;17.83;;;;;;;;;;5106297;28;20052;-69
2022/10/29 07:25:39;;;;;;;27.15;17.65;;;;;;;;;;5108367;28;20484;-69
2022/10/29 07:28:06;;;;;;;28.10;18.77;;;;;;;;;;5117193;28;20086;-69
2022/10/29 07:30:32;;;;;;;43.15;21.70;;;;;;;;;;5124133;27;20109;-68
2022/10/29 07:32:58;;;;;;;36.08;20.88;;;;;;;;;;5113867;28;20089;-69
2022/10/29 07:35:24;;;;;;;30.45;18.98;;;;;;;;;;5106958;28;20099;-68
2022/10/29 07:37:50;;;;;;;28.70;18.25;;;;;;;;;;5100037;27;20142;-68
2022/10/29 07:40:16;;;;;;;28.65;18.58;;;;;;;;;;5103228;27;20050;-69
2022/10/29 07:42:42;;;;;;;25.02;17.73;;;;;;;;;;5109399;28;20058;-69
2022/10/29 07:45:08;;;;;;;31.40;18.42;;;;;;;;;;5110298;27;20047;-69
2022/10/29 07:47:34;;;;;;;32.72;20.10;;;;;;;;;;5110151;27;20043;-69
2022/10/29 07:50:00;;;;;;;33.30;18.83;;;;;;;;;;5112690;27;20138;-69
2022/10/29 07:52:26;;;;;;;31.25;19.45;;;;;;;;;;5105970;27;20188;-69
2022/10/29 07:54:52;;;;;;;28.38;18.38;;;;;;;;;;5100414;27;20134;-70
2022/10/29 07:57:21;;;;;;;28.27;18.60;;;;;;;;;;5099235;27;20036;-69
2022/10/29 07:59:49;;;;;;;33.38;19.77;;;;;;;;;;5098247;27;20606;-69
2022/10/29 08:02:14;;;;;;;27.35;19.90;;;;;;;;;;5098208;28;20044;-69
2022/10/29 08:04:40;;;;;;;31.20;20.08;;;;;;;;;;5095640;28;20052;-69
2022/10/29 08:07:06;;;;;;;35.92;21.30;;;;;;;;;;5081079;28;20040;-70
2022/10/29 08:09:32;;;;;;;36.58;20.73;;;;;;;;;;5098761;27;20082;-69
2022/10/29 08:11:58;;;;;;;38.53;21.83;;;;;;;;;;5097077;27;20398;-69
2022/10/29 08:14:24;;;;;;;35.53;21.35;;;;;;;;;;5091999;28;20189;-69
2022/10/29 08:16:53;;;;;;;34.67;22.67;;;;;;;;;;5096319;27;20054;-70
2022/10/29 08:19:19;;;;;;;46.25;23.02;;;;;;;;;;5098740;27;20044;-67
2022/10/29 08:21:45;;;;;;;39.63;23.15;;;;;;;;;;5096677;27;20051;-76
2022/10/29 08:24:12;;;;;;;39.22;22.02;;;;;;;;;;5097879;28;20055;-74
2022/10/29 08:26:38;;;;;;;46.50;22.25;;;;;;;;;;5100031;27;20048;-68
2022/10/29 08:29:04;;;;;;;52.45;23.38;;;;;;;;;;5099797;28;20051;-67
2022/10/29 08:31:30;;;;;;;41.58;21.77;;;;;;;;;;5097101;28;20043;-68
2022/10/29 08:33:55;;;;;;;46.00;21.08;;;;;;;;;;5099797;28;20130;-68
2022/10/29 08:36:22;;;;;;;51.20;22.10;;;;;;;;;;5098745;27;20048;-69
2022/10/29 08:38:47;;;;;;;45.72;22.85;;;;;;;;;;5099838;27;20868;-68
2022/10/29 08:41:32;;;;;;;45.85;21.90;;;;;;;;;;5100240;27;20063;-66
2022/10/29 08:44:15;;;;;;;44.10;21.60;;;;;;;;;;5099840;27;20043;-68
2022/10/29 08:46:53;;;;;;;44.95;21.67;;;;;;;;;;5102144;27;20044;-67
2022/10/29 08:49:21;;;;;;;45.28;21.80;;;;;;;;;;5094150;27;20810;-68
2022/10/29 08:51:50;;;;;;;46.55;22.88;;;;;;;;;;5092877;27;20051;-68
2022/10/29 08:54:17;;;;;;;44.13;22.88;;;;;;;;;;5101794;28;20581;-66
2022/10/29 08:56:45;;;;;;;53.08;21.83;;;;;;;;;;5102274;27;20645;-67
2022/10/29 08:59:24;;;;;;;41.88;21.67;;;;;;;;;;5099888;28;20098;-67
2022/10/29 09:01:52;;;;;;;44.78;22.00;;;;;;;;;;5095891;27;20044;-68
2022/10/29 09:04:23;;;;;;;39.78;21.48;;;;;;;;;;5095317;27;20363;-68
2022/10/29 09:06:58;;;;;;;39.88;22.27;;;;;;;;;;5100504;27;20050;-69
2022/10/29 09:09:34;;;;;;;52.40;23.88;;;;;;;;;;5087104;27;20051;-68
2022/10/29 09:12:29;;;;;;;43.58;23.40;;;;;;;;;;5096873;27;20054;-67
2022/10/29 09:15:01;;;;;;;50.83;26.00;;;;;;;;;;5095958;27;20409;-68
2022/10/29 09:17:35;;;;;;;46.60;25.60;;;;;;;;;;5095845;27;20107;-68
2022/10/29 09:20:18;;;;;;;50.15;25.98;;;;;;;;;;5094329;28;20051;-68
2022/10/29 09:22:53;;;;;;;52.25;26.70;;;;;;;;;;5100916;28;20047;-67
2022/10/29 09:25:19;;;;;;;48.22;24.67;;;;;;;;;;5098830;27;20040;-69
2022/10/29 09:27:56;;;;;;;46.17;24.40;;;;;;;;;;5096668;28;20052;-68
2022/10/29 09:30:22;;;;;;;46.75;23.88;;;;;;;;;;5098486;27;20874;-67
2022/10/29 09:33:06;;;;;;;47.13;25.35;;;;;;;;;;5098682;27;20059;-68
2022/10/29 09:35:52;;;;;;;43.45;22.58;;;;;;;;;;5096954;27;20047;-68
2022/10/29 09:38:34;;;;;;;48.90;24.48;;;;;;;;;;5099272;27;20056;-68
2022/10/29 09:41:01;;;;;;;47.53;25.37;;;;;;;;;;5098054;27;20058;-68
2022/10/29 09:43:33;;;;;;;47.22;23.35;;;;;;;;;;5093862;27;20355;-68
2022/10/29 09:46:18;;;;;;;36.85;20.88;;;;;;;;;;5092660;28;20040;-67
2022/10/29 09:48:44;;;;;;;45.92;20.98;;;;;;;;;;5091544;28;20044;-67
2022/10/29 09:51:19;;;;;;;41.08;20.25;;;;;;;;;;5096645;27;20047;-67
2022/10/29 09:53:45;;;;;;;40.63;19.50;;;;;;;;;;5095673;28;20054;-68
2022/10/29 09:56:11;;;;;;;35.47;18.38;;;;;;;;;;5097016;27;20054;-68
2022/10/29 09:58:41;;;;;;;37.22;17.40;;;;;;;;;;5099546;27;20039;-67
2022/10/29 10:01:06;;;;;;;36.03;17.42;;;;;;;;;;5098163;28;20499;-67
2022/10/29 10:03:36;;;;;;;34.40;17.27;;;;;;;;;;5096468;27;20118;-68
2022/10/29 10:06:07;;;;;;;35.28;18.50;;;;;;;;;;5097509;27;20052;-68
2022/10/29 10:08:33;;;;;;;31.90;17.88;;;;;;;;;;5099169;27;20052;-67
2022/10/29 10:10:59;;;;;;;36.45;17.23;;;;;;;;;;5095141;28;20435;-68
2022/10/29 10:13:30;;;;;;;33.03;16.80;;;;;;;;;;5073039;28;20064;-68
2022/10/29 10:15:58;;;;;;;36.38;16.88;;;;;;;;;;5096619;28;20063;-67
2022/10/29 10:18:25;;;;;;;34.50;16.55;;;;;;;;;;5092014;28;20041;-68
2022/10/29 10:21:05;;;;;;;39.53;17.80;;;;;;;;;;5091980;28;20489;-67
2022/10/29 10:23:48;;;;;;;32.10;16.77;;;;;;;;;;5094679;27;20078;-66
2022/10/29 10:26:13;;;;;;;;;;;;;;;;;;5100566;27;20135;-68
2022/10/29 10:28:39;;;;;;;31.95;16.88;;;;;;;;;;5093421;28;19957;-67
2022/10/29 10:31:06;;;;;;;29.85;16.52;;;;;;;;;;5098295;27;20217;-68
2022/10/29 10:33:33;;;;;;;32.30;16.85;;;;;;;;;;5099441;27;20131;-68
2022/10/29 10:36:08;;;;;;;31.65;16.38;;;;;;;;;;5100600;28;20126;-68
2022/10/29 10:38:44;;;;;;;33.25;16.15;;;;;;;;;;5092653;28;20040;-68
2022/10/29 10:41:11;;;;;;;36.65;15.75;;;;;;;;;;5080837;28;20565;-67
2022/10/29 10:43:37;;;;;;;30.90;15.98;;;;;;;;;;5090276;27;20046;-66
2022/10/29 10:46:06;;;;;;;33.35;15.75;;;;;;;;;;5097174;28;20044;-67
2022/10/29 10:48:32;;;;;;;33.97;16.00;;;;;;;;;;5096838;27;20040;-68
2022/10/29 10:51:17;;;;;;;28.58;14.98;;;;;;;;;;5096330;28;20085;-68
2022/10/29 10:53:43;;;;;;;28.13;14.18;;;;;;;;;;5098010;27;21762;-67
2022/10/29 10:56:16;;;;;;;34.45;15.27;;;;;;;;;;5093011;27;20058;-70
2022/10/29 10:58:47;;;;;;;28.40;14.65;;;;;;;;;;5090307;28;20117;-68
2022/10/29 11:01:17;;;;;;;33.38;14.88;;;;;;;;;;5082946;28;20099;-67
2022/10/29 11:03:45;;;;;;;29.27;14.93;;;;;;;;;;5100479;27;20541;-67
2022/10/29 11:06:21;;;;;;;28.77;14.27;;;;;;;;;;5095744;28;20374;-67
2022/10/29 11:08:57;;;;;;;27.75;14.05;;;;;;;;;;5097309;28;20497;-67
2022/10/29 11:11:26;;;;;;;34.90;14.02;;;;;;;;;;5092397;28;20074;-69
2022/10/29 11:13:53;;;;;;;28.27;14.15;;;;;;;;;;5091093;28;20521;-68
2022/10/29 11:16:30;;;;;;;33.55;15.18;;;;;;;;;;5095832;28;20438;-67
2022/10/29 11:19:15;;;;;;;29.05;15.30;;;;;;;;;;5091093;28;20079;-66
2022/10/29 11:22:00;;;;;;;27.50;14.30;;;;;;;;;;5091329;28;20035;-67
2022/10/29 11:24:44;;;;;;;34.60;14.95;;;;;;;;;;5093798;28;20047;-70
2022/10/29 11:27:49;;;;;;;30.52;14.70;;;;;;;;;;5089347;28;20397;-69
2022/10/29 11:30:16;;;;;;;28.35;13.32;;;;;;;;;;5024921;28;20554;-67
2022/10/29 11:33:01;;;;;;;29.60;14.13;;;;;;;;;;5023423;28;20107;-67
2022/10/29 11:35:38;;;;;;;29.23;13.52;;;;;;;;;;5070773;28;20090;-68
2022/10/29 11:38:08;;;;;;;24.98;13.32;;;;;;;;;;5092505;28;20040;-69
2022/10/29 11:40:33;;;;;;;26.08;12.57;;;;;;;;;;5092019;28;20091;-71
2022/10/29 11:43:02;;;;;;;29.55;13.18;;;;;;;;;;5104838;28;20448;-67
2022/10/29 11:45:37;;;;;;;26.63;12.30;;;;;;;;;;5091265;28;20409;-68
2022/10/29 11:48:13;;;;;;;23.00;12.80;;;;;;;;;;5100452;28;20402;-65
2022/10/29 11:50:49;;;;;;;25.27;13.15;;;;;;;;;;5095762;28;20460;-70
2022/10/29 11:53:20;;;;;;;27.77;12.95;;;;;;;;;;5089258;28;20044;-70
2022/10/29 11:55:46;;;;;;;24.67;12.37;;;;;;;;;;5094579;28;20048;-70
2022/10/29 11:58:30;;;;;;;32.88;13.48;;;;;;;;;;5089588;27;20447;-70
2022/10/29 12:00:56;;;;;;;28.23;12.60;;;;;;;;;;5093858;28;20054;-68
2022/10/29 12:03:36;;;;;;;22.95;11.30;;;;;;;;;;5089083;28;20383;-68
2022/10/29 12:06:02;;;;;;;24.33;11.50;;;;;;;;;;5087386;28;20072;-71
2022/10/29 12:08:47;;;;;;;20.67;11.60;;;;;;;;;;5090841;28;20442;-69
2022/10/29 12:11:19;;;;;;;24.02;11.80;;;;;;;;;;5086607;28;20108;-71
2022/10/29 12:14:15;;;;;;;28.40;12.32;;;;;;;;;;5090913;28;21109;-71
2022/10/29 12:16:49;;;;;;;24.80;10.93;;;;;;;;;;5077394;28;20078;-70
2022/10/29 12:19:20;;;;;;;30.58;11.43;;;;;;;;;;5090241;28;20039;-71
2022/10/29 12:21:54;;;;;;;25.95;11.80;;;;;;;;;;5094188;28;20142;-68
2022/10/29 12:24:38;;;;;;;26.05;11.63;;;;;;;;;;5091679;27;20043;-71
2022/10/29 12:27:24;;;;;;;23.33;11.40;;;;;;;;;;5098532;27;20047;-68
2022/10/29 12:29:59;;;;;;;25.38;11.18;;;;;;;;;;5038689;28;20052;-69
2022/10/29 12:32:31;;;;;;;20.75;11.07;;;;;;;;;;5093611;28;20043;-70
2022/10/29 12:35:01;;;;;;;;;;;;;;;;;;5097431;28;20052;-71
2022/10/29 12:37:43;;;;;;;28.00;12.15;;;;;;;;;;5095801;27;19938;-70
2022/10/29 12:40:15;;;;;;;25.33;11.75;;;;;;;;;;5094807;27;20044;-69
2022/10/29 12:42:42;;;;;;;24.75;11.45;;;;;;;;;;5091933;27;20048;-67
2022/10/29 12:45:25;;;;;;;27.75;11.18;;;;;;;;;;5094995;27;20044;-69
2022/10/29 12:48:10;;;;;;;24.55;11.85;;;;;;;;;;5096105;27;20051;-69
2022/10/29 12:50:48;;;;;;;25.92;12.13;;;;;;;;;;5095197;27;20101;-69
2022/10/29 12:53:23;;;;;;;26.25;12.02;;;;;;;;;;5091550;27;20054;-68
2022/10/29 12:55:49;;;;;;;24.98;12.48;;;;;;;;;;5092218;27;20085;-67
2022/10/29 12:58:34;;;;;;;21.83;11.85;;;;;;;;;;5095499;27;20108;-68
2022/10/29 13:01:00;;;;;;;26.00;11.68;;;;;;;;;;5090336;28;20036;-69
2022/10/29 13:03:45;;;;;;;26.20;12.25;;;;;;;;;;5091658;28;20100;-69
2022/10/29 13:06:37;;;;;;;29.00;13.48;;;;;;;;;;5093355;28;20070;-69
2022/10/29 13:09:14;;;;;;;24.92;12.88;;;;;;;;;;5093725;28;20076;-69
2022/10/29 13:11:43;;;;;;;26.95;12.63;;;;;;;;;;5094378;28;20134;-68
2022/10/29 13:14:13;;;;;;;25.17;12.70;;;;;;;;;;5103331;27;20070;-69
2022/10/29 13:16:40;;;;;;;25.02;12.70;;;;;;;;;;5100615;28;21424;-69
2022/10/29 13:19:08;;;;;;;20.75;12.75;;;;;;;;;;5102067;27;20063;-70
2022/10/29 13:21:53;;;;;;;28.38;13.35;;;;;;;;;;5101879;27;20047;-68
2022/10/29 13:24:20;;;;;;;26.75;13.45;;;;;;;;;;5110372;27;20039;-69
2022/10/29 13:26:53;;;;;;;30.80;12.80;;;;;;;;;;5100474;27;20044;-68
2022/10/29 13:29:38;;;;;;;27.77;12.77;;;;;;;;;;5094627;28;20393;-69
2022/10/29 13:32:05;;;;;;;25.88;12.45;;;;;;;;;;5088066;27;20036;-69
2022/10/29 13:34:50;;;;;;;29.38;13.57;;;;;;;;;;5089633;28;20040;-67
2022/10/29 13:37:35;;;;;;;27.48;12.88;;;;;;;;;;5100894;27;20169;-67
2022/10/29 13:40:20;;;;;;;27.45;13.07;;;;;;;;;;5092506;27;20040;-67
2022/10/29 13:42:46;;;;;;;31.92;13.25;;;;;;;;;;5092630;27;20043;-68
2022/10/29 13:45:13;;;;;;;25.95;12.75;;;;;;;;;;5091253;28;20048;-70
2022/10/29 13:47:39;;;;;;;29.48;13.50;;;;;;;;;;5089249;28;20131;-67
2022/10/29 13:50:06;;;;;;;25.95;12.45;;;;;;;;;;5092500;28;20039;-72
2022/10/29 13:52:36;;;;;;;31.63;12.90;;;;;;;;;;5090767;28;20055;-68
2022/10/29 13:55:02;;;;;;;24.40;12.48;;;;;;;;;;5095449;27;20507;-68
2022/10/29 13:57:36;;;;;;;20.50;12.20;;;;;;;;;;5099845;27;20067;-70
2022/10/29 14:00:11;;;;;;;21.73;11.73;;;;;;;;;;5097798;27;20042;-69
2022/10/29 14:02:43;;;;;;;27.75;11.88;;;;;;;;;;5092117;28;20402;-68
2022/10/29 14:05:12;;;;;;;24.67;11.93;;;;;;;;;;5097880;27;20036;-71
2022/10/29 14:07:46;;;;;;;27.50;11.88;;;;;;;;;;5091513;28;20509;-70
2022/10/29 14:10:18;;;;;;;22.92;11.25;;;;;;;;;;5090442;28;20044;-68
2022/10/29 14:12:45;;;;;;;23.75;10.82;;;;;;;;;;5096466;27;20064;-68
2022/10/29 14:15:13;;;;;;;23.52;10.55;;;;;;;;;;5101510;27;20051;-71
2022/10/29 14:17:39;;;;;;;25.88;10.30;;;;;;;;;;5096439;27;20043;-69
2022/10/29 14:20:18;;;;;;;23.05;10.63;;;;;;;;;;5093074;27;20036;-71
2022/10/29 14:22:44;;;;;;;25.88;10.80;;;;;;;;;;5104761;27;20046;-71
2022/10/29 14:25:27;;;;;;;23.95;10.50;;;;;;;;;;5105509;28;20048;-70
2022/10/29 14:28:09;;;;;;;20.75;9.68;;;;;;;;;;5101510;28;21057;-71
2022/10/29 14:30:35;;;;;;;24.25;10.40;;;;;;;;;;5105437;28;20047;-68
2022/10/29 14:33:02;;;;;;;21.77;10.15;;;;;;;;;;5105143;28;20051;-71
2022/10/29 14:35:28;;;;;;;18.40;10.10;;;;;;;;;;5108365;28;20443;-71
2022/10/29 14:37:55;;;;;;;24.23;10.13;;;;;;;;;;5104019;28;20048;-70
2022/10/29 14:40:22;;;;;;;21.95;9.27;;;;;;;;;;5106983;28;20040;-69